sensor_id;sensor_type;location;lat;lon;timestamp;temperature;humidity
34837;DHT22;21053;50.848;4.652;2023-02-01T00:00:53;8.20;99.90
34837;DHT22;21053;50.848;4.652;2023-02-01T00:03:22;8.20;99.90
34837;DHT22;21053;50.848;4.652;2023-02-01T00:06:00;8.20;99.90
34837;DHT22;21053;50.848;4.652;2023-02-01T00:08:31;8.20;99.90
34837;DHT22;21053;50.848;4.652;2023-02-01T00:13:32;8.20;99.90
34837;DHT22;21053;50.848;4.652;2023-02-01T00:16:14;8.20;99.90
34837;DHT22;21053;50.848;4.652;2023-02-01T00:18:45;8.30;99.90
34837;DHT22;21053;50.848;4.652;2023-02-01T00:22:59;8.30;99.90
34837;DHT22;21053;50.848;4.652;2023-02-01T00:25:28;8.80;99.90
34837;DHT22;21053;50.848;4.652;2023-02-01T00:27:54;8.40;99.90
34837;DHT22;21053;50.848;4.652;2023-02-01T00:30:24;8.60;99.90
34837;DHT22;21053;50.848;4.652;2023-02-01T00:32:51;8.40;99.90
34837;DHT22;21053;50.848;4.652;2023-02-01T00:35:23;8.80;99.90
34837;DHT22;21053;50.848;4.652;2023-02-01T00:37:50;8.30;99.90
34837;DHT22;21053;50.848;4.652;2023-02-01T00:40:16;8.30;99.90
34837;DHT22;21053;50.848;4.652;2023-02-01T00:42:44;8.30;99.90
34837;DHT22;21053;50.848;4.652;2023-02-01T00:45:10;8.40;99.90
34837;DHT22;21053;50.848;4.652;2023-02-01T00:47:39;8.40;99.90
34837;DHT22;21053;50.848;4.652;2023-02-01T00:50:07;8.40;99.90
34837;DHT22;21053;50.848;4.652;2023-02-01T00:52:36;8.40;99.90
34837;DHT22;21053;50.848;4.652;2023-02-01T00:55:04;8.40;99.90
34837;DHT22;21053;50.848;4.652;2023-02-01T00:57:32;8.40;99.90
34837;DHT22;21053;50.848;4.652;2023-02-01T01:00:01;8.40;99.90
34837;DHT22;21053;50.848;4.652;2023-02-01T01:02:28;8.40;99.90
34837;DHT22;21053;50.848;4.652;2023-02-01T01:05:00;8.50;99.90
34837;DHT22;21053;50.848;4.652;2023-02-01T01:07:38;8.50;99.90
34837;DHT22;21053;50.848;4.652;2023-02-01T01:10:10;8.40;99.90
34837;DHT22;21053;50.848;4.652;2023-02-01T01:12:39;8.40;99.90
34837;DHT22;21053;50.848;4.652;2023-02-01T01:15:07;8.40;99.90
34837;DHT22;21053;50.848;4.652;2023-02-01T01:17:36;8.30;99.90
34837;DHT22;21053;50.848;4.652;2023-02-01T01:20:04;8.20;99.90
34837;DHT22;21053;50.848;4.652;2023-02-01T01:22:31;8.20;99.90
34837;DHT22;21053;50.848;4.652;2023-02-01T01:24:58;8.20;99.90
34837;DHT22;21053;50.848;4.652;2023-02-01T01:27:24;8.10;99.90
34837;DHT22;21053;50.848;4.652;2023-02-01T01:29:50;8.20;99.90
34837;DHT22;21053;50.848;4.652;2023-02-01T01:32:17;8.20;99.90
34837;DHT22;21053;50.848;4.652;2023-02-01T01:34:43;8.10;99.90
34837;DHT22;21053;50.848;4.652;2023-02-01T01:37:12;8.20;99.90
34837;DHT22;21053;50.848;4.652;2023-02-01T01:39:41;8.20;99.90
34837;DHT22;21053;50.848;4.652;2023-02-01T01:42:13;8.30;99.90
34837;DHT22;21053;50.848;4.652;2023-02-01T01:45:01;8.30;99.90
34837;DHT22;21053;50.848;4.652;2023-02-01T01:47:55;8.20;99.90
34837;DHT22;21053;50.848;4.652;2023-02-01T01:50:44;8.10;99.90
34837;DHT22;21053;50.848;4.652;2023-02-01T01:53:18;8.00;99.90
34837;DHT22;21053;50.848;4.652;2023-02-01T01:55:47;8.30;99.90
34837;DHT22;21053;50.848;4.652;2023-02-01T01:58:26;9.20;99.90
34837;DHT22;21053;50.848;4.652;2023-02-01T02:00:54;7.90;99.90
34837;DHT22;21053;50.848;4.652;2023-02-01T02:03:34;7.90;99.90
34837;DHT22;21053;50.848;4.652;2023-02-01T02:06:07;7.80;99.90
34837;DHT22;21053;50.848;4.652;2023-02-01T02:08:39;7.80;99.90
34837;DHT22;21053;50.848;4.652;2023-02-01T02:11:05;7.80;99.90
34837;DHT22;21053;50.848;4.652;2023-02-01T02:13:38;7.90;99.90
34837;DHT22;21053;50.848;4.652;2023-02-01T02:16:34;7.80;99.90
34837;DHT22;21053;50.848;4.652;2023-02-01T02:19:25;7.70;99.90
34837;DHT22;21053;50.848;4.652;2023-02-01T02:24:52;9.50;99.90
34837;DHT22;21053;50.848;4.652;2023-02-01T02:35:45;7.60;99.90
34837;DHT22;21053;50.848;4.652;2023-02-01T02:41:48;7.50;99.90
34837;DHT22;21053;50.848;4.652;2023-02-01T02:44:45;7.50;99.90
34837;DHT22;21053;50.848;4.652;2023-02-01T02:50:32;7.40;99.90
34837;DHT22;21053;50.848;4.652;2023-02-01T02:53:30;7.40;99.90
34837;DHT22;21053;50.848;4.652;2023-02-01T02:56:21;7.50;99.90
34837;DHT22;21053;50.848;4.652;2023-02-01T02:59:13;7.50;99.90
34837;DHT22;21053;50.848;4.652;2023-02-01T03:01:58;7.60;99.90
34837;DHT22;21053;50.848;4.652;2023-02-01T03:04:45;7.40;99.90
34837;DHT22;21053;50.848;4.652;2023-02-01T03:12:41;7.50;99.90
34837;DHT22;21053;50.848;4.652;2023-02-01T03:15:29;7.30;99.90
34837;DHT22;21053;50.848;4.652;2023-02-01T03:18:00;7.40;99.90
34837;DHT22;21053;50.848;4.652;2023-02-01T03:20:30;7.30;99.90
34837;DHT22;21053;50.848;4.652;2023-02-01T03:23:08;7.30;99.90
34837;DHT22;21053;50.848;4.652;2023-02-01T03:25:36;7.30;99.90
34837;DHT22;21053;50.848;4.652;2023-02-01T03:28:06;7.40;99.90
34837;DHT22;21053;50.848;4.652;2023-02-01T03:30:43;7.30;99.90
34837;DHT22;21053;50.848;4.652;2023-02-01T03:33:15;7.20;99.90
34837;DHT22;21053;50.848;4.652;2023-02-01T03:38:46;7.10;99.90
34837;DHT22;21053;50.848;4.652;2023-02-01T03:41:28;7.10;99.90
34837;DHT22;21053;50.848;4.652;2023-02-01T03:47:10;7.10;99.90
34837;DHT22;21053;50.848;4.652;2023-02-01T03:49:52;7.20;99.90
34837;DHT22;21053;50.848;4.652;2023-02-01T03:52:28;7.10;99.90
34837;DHT22;21053;50.848;4.652;2023-02-01T03:54:58;7.10;99.90
34837;DHT22;21053;50.848;4.652;2023-02-01T03:57:33;7.00;99.90
34837;DHT22;21053;50.848;4.652;2023-02-01T04:02:37;7.10;99.90
34837;DHT22;21053;50.848;4.652;2023-02-01T04:05:05;7.10;99.90
34837;DHT22;21053;50.848;4.652;2023-02-01T04:07:34;7.10;99.90
34837;DHT22;21053;50.848;4.652;2023-02-01T04:10:01;7.10;99.90
34837;DHT22;21053;50.848;4.652;2023-02-01T04:12:29;7.00;99.90
34837;DHT22;21053;50.848;4.652;2023-02-01T04:14:57;7.10;99.90
34837;DHT22;21053;50.848;4.652;2023-02-01T04:17:23;7.00;99.90
34837;DHT22;21053;50.848;4.652;2023-02-01T04:19:52;6.90;99.90
34837;DHT22;21053;50.848;4.652;2023-02-01T04:22:24;6.90;99.90
34837;DHT22;21053;50.848;4.652;2023-02-01T04:24:49;6.80;99.90
34837;DHT22;21053;50.848;4.652;2023-02-01T04:27:18;6.80;99.90
34837;DHT22;21053;50.848;4.652;2023-02-01T04:29:46;7.70;99.90
34837;DHT22;21053;50.848;4.652;2023-02-01T04:32:12;6.90;99.90
34837;DHT22;21053;50.848;4.652;2023-02-01T04:34:40;6.90;99.90
34837;DHT22;21053;50.848;4.652;2023-02-01T04:37:08;8.40;99.90
34837;DHT22;21053;50.848;4.652;2023-02-01T04:39:34;6.80;99.90
34837;DHT22;21053;50.848;4.652;2023-02-01T04:42:00;6.70;99.90
34837;DHT22;21053;50.848;4.652;2023-02-01T04:44:26;6.70;99.90
34837;DHT22;21053;50.848;4.652;2023-02-01T04:46:52;6.70;99.90
34837;DHT22;21053;50.848;4.652;2023-02-01T04:49:18;6.70;99.90
34837;DHT22;21053;50.848;4.652;2023-02-01T04:51:45;6.70;99.90
34837;DHT22;21053;50.848;4.652;2023-02-01T04:54:14;6.90;99.90
34837;DHT22;21053;50.848;4.652;2023-02-01T04:56:41;6.70;99.90
34837;DHT22;21053;50.848;4.652;2023-02-01T04:59:11;6.80;99.90
34837;DHT22;21053;50.848;4.652;2023-02-01T05:01:38;6.70;99.90
34837;DHT22;21053;50.848;4.652;2023-02-01T05:04:05;8.20;99.90
34837;DHT22;21053;50.848;4.652;2023-02-01T05:06:31;6.70;99.90
34837;DHT22;21053;50.848;4.652;2023-02-01T05:08:57;6.60;99.90
34837;DHT22;21053;50.848;4.652;2023-02-01T05:11:23;6.60;99.90
34837;DHT22;21053;50.848;4.652;2023-02-01T05:14:10;6.50;99.90
34837;DHT22;21053;50.848;4.652;2023-02-01T05:16:38;6.40;99.90
34837;DHT22;21053;50.848;4.652;2023-02-01T05:19:06;6.60;99.90
34837;DHT22;21053;50.848;4.652;2023-02-01T05:21:34;6.60;99.90
34837;DHT22;21053;50.848;4.652;2023-02-01T05:24:02;6.50;99.90
34837;DHT22;21053;50.848;4.652;2023-02-01T05:26:48;6.40;99.90
34837;DHT22;21053;50.848;4.652;2023-02-01T05:29:17;6.50;99.90
34837;DHT22;21053;50.848;4.652;2023-02-01T05:31:47;6.50;99.90
34837;DHT22;21053;50.848;4.652;2023-02-01T05:34:15;6.60;99.90
34837;DHT22;21053;50.848;4.652;2023-02-01T05:36:44;6.60;99.90
34837;DHT22;21053;50.848;4.652;2023-02-01T05:39:10;6.60;99.90
34837;DHT22;21053;50.848;4.652;2023-02-01T05:41:36;6.40;99.90
34837;DHT22;21053;50.848;4.652;2023-02-01T05:44:04;6.30;99.90
34837;DHT22;21053;50.848;4.652;2023-02-01T05:46:35;6.50;99.90
34837;DHT22;21053;50.848;4.652;2023-02-01T05:49:02;6.50;99.90
34837;DHT22;21053;50.848;4.652;2023-02-01T05:51:32;6.60;99.90
34837;DHT22;21053;50.848;4.652;2023-02-01T05:54:02;6.40;99.90
34837;DHT22;21053;50.848;4.652;2023-02-01T05:56:28;6.30;99.90
34837;DHT22;21053;50.848;4.652;2023-02-01T05:58:56;6.40;99.90
34837;DHT22;21053;50.848;4.652;2023-02-01T06:01:25;6.30;99.90
34837;DHT22;21053;50.848;4.652;2023-02-01T06:03:52;6.20;99.90
34837;DHT22;21053;50.848;4.652;2023-02-01T06:06:17;6.20;99.90
34837;DHT22;21053;50.848;4.652;2023-02-01T06:08:46;6.10;99.90
34837;DHT22;21053;50.848;4.652;2023-02-01T06:11:17;6.10;99.90
34837;DHT22;21053;50.848;4.652;2023-02-01T06:13:43;6.10;99.90
34837;DHT22;21053;50.848;4.652;2023-02-01T06:16:09;6.10;99.90
34837;DHT22;21053;50.848;4.652;2023-02-01T06:18:38;6.20;99.90
34837;DHT22;21053;50.848;4.652;2023-02-01T06:21:05;6.20;99.90
34837;DHT22;21053;50.848;4.652;2023-02-01T06:23:33;6.10;99.90
34837;DHT22;21053;50.848;4.652;2023-02-01T06:26:03;6.10;99.90
34837;DHT22;21053;50.848;4.652;2023-02-01T06:28:33;5.90;99.90
34837;DHT22;21053;50.848;4.652;2023-02-01T06:31:06;6.00;99.90
34837;DHT22;21053;50.848;4.652;2023-02-01T06:33:33;6.00;99.90
34837;DHT22;21053;50.848;4.652;2023-02-01T06:36:00;6.10;99.90
34837;DHT22;21053;50.848;4.652;2023-02-01T06:38:30;6.10;99.90
34837;DHT22;21053;50.848;4.652;2023-02-01T06:40:59;6.30;99.90
34837;DHT22;21053;50.848;4.652;2023-02-01T06:43:27;6.20;99.90
34837;DHT22;21053;50.848;4.652;2023-02-01T06:46:00;6.10;99.90
34837;DHT22;21053;50.848;4.652;2023-02-01T06:48:29;6.10;99.90
34837;DHT22;21053;50.848;4.652;2023-02-01T06:50:58;6.20;99.90
34837;DHT22;21053;50.848;4.652;2023-02-01T06:53:26;6.20;99.90
34837;DHT22;21053;50.848;4.652;2023-02-01T06:56:02;6.20;99.90
34837;DHT22;21053;50.848;4.652;2023-02-01T06:58:33;6.00;99.90
34837;DHT22;21053;50.848;4.652;2023-02-01T07:01:06;6.00;99.90
34837;DHT22;21053;50.848;4.652;2023-02-01T07:03:34;6.00;99.90
34837;DHT22;21053;50.848;4.652;2023-02-01T07:06:03;6.10;99.90
34837;DHT22;21053;50.848;4.652;2023-02-01T07:08:31;6.10;99.90
34837;DHT22;21053;50.848;4.652;2023-02-01T07:11:07;6.20;99.90
34837;DHT22;21053;50.848;4.652;2023-02-01T07:13:35;6.10;99.90
34837;DHT22;21053;50.848;4.652;2023-02-01T07:16:03;7.00;99.90
34837;DHT22;21053;50.848;4.652;2023-02-01T07:18:30;6.00;99.90
34837;DHT22;21053;50.848;4.652;2023-02-01T07:21:00;6.00;99.90
34837;DHT22;21053;50.848;4.652;2023-02-01T07:23:29;6.10;99.90
34837;DHT22;21053;50.848;4.652;2023-02-01T07:25:58;6.10;99.90
34837;DHT22;21053;50.848;4.652;2023-02-01T07:30:05;6.20;99.90
34837;DHT22;21053;50.848;4.652;2023-02-01T07:32:32;6.30;99.90
34837;DHT22;21053;50.848;4.652;2023-02-01T07:34:59;6.20;99.90
34837;DHT22;21053;50.848;4.652;2023-02-01T07:37:28;6.30;99.90
34837;DHT22;21053;50.848;4.652;2023-02-01T07:39:57;6.30;99.90
34837;DHT22;21053;50.848;4.652;2023-02-01T07:42:25;6.30;99.90
34837;DHT22;21053;50.848;4.652;2023-02-01T07:44:54;6.10;99.90
34837;DHT22;21053;50.848;4.652;2023-02-01T07:47:23;6.30;99.90
34837;DHT22;21053;50.848;4.652;2023-02-01T07:49:51;6.20;99.90
34837;DHT22;21053;50.848;4.652;2023-02-01T07:52:19;6.30;99.90
34837;DHT22;21053;50.848;4.652;2023-02-01T07:54:51;6.20;99.90
34837;DHT22;21053;50.848;4.652;2023-02-01T07:57:17;6.30;99.90
34837;DHT22;21053;50.848;4.652;2023-02-01T07:59:45;6.40;99.90
34837;DHT22;21053;50.848;4.652;2023-02-01T08:02:31;6.50;99.90
34837;DHT22;21053;50.848;4.652;2023-02-01T08:04:58;6.40;99.90
34837;DHT22;21053;50.848;4.652;2023-02-01T08:07:23;6.40;99.90
34837;DHT22;21053;50.848;4.652;2023-02-01T08:09:50;6.40;99.90
34837;DHT22;21053;50.848;4.652;2023-02-01T08:12:19;6.50;99.90
34837;DHT22;21053;50.848;4.652;2023-02-01T08:14:46;6.50;99.90
34837;DHT22;21053;50.848;4.652;2023-02-01T08:17:13;6.60;99.90
34837;DHT22;21053;50.848;4.652;2023-02-01T08:19:40;8.70;99.90
34837;DHT22;21053;50.848;4.652;2023-02-01T08:22:11;6.80;99.90
34837;DHT22;21053;50.848;4.652;2023-02-01T08:24:37;6.80;99.90
34837;DHT22;21053;50.848;4.652;2023-02-01T08:28:53;7.00;99.90
34837;DHT22;21053;50.848;4.652;2023-02-01T08:31:22;7.10;99.90
34837;DHT22;21053;50.848;4.652;2023-02-01T08:33:53;7.00;99.90
34837;DHT22;21053;50.848;4.652;2023-02-01T08:36:24;7.10;99.90
34837;DHT22;21053;50.848;4.652;2023-02-01T08:38:53;7.00;99.90
34837;DHT22;21053;50.848;4.652;2023-02-01T08:41:25;8.70;99.90
34837;DHT22;21053;50.848;4.652;2023-02-01T08:43:54;7.10;99.90
34837;DHT22;21053;50.848;4.652;2023-02-01T08:46:23;10.10;99.90
34837;DHT22;21053;50.848;4.652;2023-02-01T08:48:52;7.20;99.90
34837;DHT22;21053;50.848;4.652;2023-02-01T08:51:21;7.20;99.90
34837;DHT22;21053;50.848;4.652;2023-02-01T08:53:50;7.30;99.90
34837;DHT22;21053;50.848;4.652;2023-02-01T08:56:18;7.50;99.90
34837;DHT22;21053;50.848;4.652;2023-02-01T08:58:46;7.50;99.90
34837;DHT22;21053;50.848;4.652;2023-02-01T09:01:16;7.50;99.90
34837;DHT22;21053;50.848;4.652;2023-02-01T09:03:43;7.70;99.90
34837;DHT22;21053;50.848;4.652;2023-02-01T09:06:15;7.70;99.90
34837;DHT22;21053;50.848;4.652;2023-02-01T09:08:43;7.60;99.90
34837;DHT22;21053;50.848;4.652;2023-02-01T09:11:14;7.60;99.90
34837;DHT22;21053;50.848;4.652;2023-02-01T09:13:44;7.50;99.90
34837;DHT22;21053;50.848;4.652;2023-02-01T09:16:12;7.70;99.90
34837;DHT22;21053;50.848;4.652;2023-02-01T09:18:44;7.80;99.90
34837;DHT22;21053;50.848;4.652;2023-02-01T09:21:10;7.60;99.90
34837;DHT22;21053;50.848;4.652;2023-02-01T09:23:35;7.80;99.90
34837;DHT22;21053;50.848;4.652;2023-02-01T09:26:02;8.20;99.90
34837;DHT22;21053;50.848;4.652;2023-02-01T09:28:29;8.10;99.90
34837;DHT22;21053;50.848;4.652;2023-02-01T09:30:56;8.00;99.90
34837;DHT22;21053;50.848;4.652;2023-02-01T09:33:27;7.90;99.90
34837;DHT22;21053;50.848;4.652;2023-02-01T09:36:05;7.90;99.90
34837;DHT22;21053;50.848;4.652;2023-02-01T09:42:14;8.10;99.90
34837;DHT22;21053;50.848;4.652;2023-02-01T09:46:24;8.40;99.90
34837;DHT22;21053;50.848;4.652;2023-02-01T09:48:56;8.40;99.90
34837;DHT22;21053;50.848;4.652;2023-02-01T09:56:56;8.40;99.90
34837;DHT22;21053;50.848;4.652;2023-02-01T09:59:44;8.40;99.90
34837;DHT22;21053;50.848;4.652;2023-02-01T10:02:21;8.40;99.90
34837;DHT22;21053;50.848;4.652;2023-02-01T10:04:54;8.50;99.90
34837;DHT22;21053;50.848;4.652;2023-02-01T10:10:21;8.60;99.90
34837;DHT22;21053;50.848;4.652;2023-02-01T10:18:33;8.40;99.90
34837;DHT22;21053;50.848;4.652;2023-02-01T10:26:56;8.70;99.90
34837;DHT22;21053;50.848;4.652;2023-02-01T10:29:36;8.50;99.90
34837;DHT22;21053;50.848;4.652;2023-02-01T10:39:05;8.50;99.90
34837;DHT22;21053;50.848;4.652;2023-02-01T10:45:17;8.50;99.90
34837;DHT22;21053;50.848;4.652;2023-02-01T10:48:19;8.50;99.90
34837;DHT22;21053;50.848;4.652;2023-02-01T10:54:19;8.80;99.90
34837;DHT22;21053;50.848;4.652;2023-02-01T11:16:54;10.90;99.90
34837;DHT22;21053;50.848;4.652;2023-02-01T11:19:21;12.10;99.60
34837;DHT22;21053;50.848;4.652;2023-02-01T11:21:59;12.70;97.60
34837;DHT22;21053;50.848;4.652;2023-02-01T11:24:36;12.50;96.50
34837;DHT22;21053;50.848;4.652;2023-02-01T11:27:14;12.00;97.20
34837;DHT22;21053;50.848;4.652;2023-02-01T11:29:45;11.90;97.70
34837;DHT22;21053;50.848;4.652;2023-02-01T11:32:17;12.10;96.90
34837;DHT22;21053;50.848;4.652;2023-02-01T11:35:18;12.60;96.00
34837;DHT22;21053;50.848;4.652;2023-02-01T11:37:52;12.60;96.30
34837;DHT22;21053;50.848;4.652;2023-02-01T11:40:30;13.80;94.30
34837;DHT22;21053;50.848;4.652;2023-02-01T11:43:26;15.50;92.50
34837;DHT22;21053;50.848;4.652;2023-02-01T11:46:17;15.40;90.10
34837;DHT22;21053;50.848;4.652;2023-02-01T11:48:52;15.20;90.20
34837;DHT22;21053;50.848;4.652;2023-02-01T11:52:01;15.40;90.00
34837;DHT22;21053;50.848;4.652;2023-02-01T11:54:38;14.80;90.30
34837;DHT22;21053;50.848;4.652;2023-02-01T11:57:20;13.90;91.00
34837;DHT22;21053;50.848;4.652;2023-02-01T12:00:24;13.20;92.10
34837;DHT22;21053;50.848;4.652;2023-02-01T12:03:13;12.80;93.10
34837;DHT22;21053;50.848;4.652;2023-02-01T12:09:02;12.40;93.60
34837;DHT22;21053;50.848;4.652;2023-02-01T12:14:37;12.70;93.80
34837;DHT22;21053;50.848;4.652;2023-02-01T12:23:24;14.50;90.60
34837;DHT22;21053;50.848;4.652;2023-02-01T12:38:23;16.50;81.90
34837;DHT22;21053;50.848;4.652;2023-02-01T12:44:03;14.80;84.00
34837;DHT22;21053;50.848;4.652;2023-02-01T12:46:59;14.70;84.80
34837;DHT22;21053;50.848;4.652;2023-02-01T12:49:38;13.90;87.10
34837;DHT22;21053;50.848;4.652;2023-02-01T12:52:47;14.00;88.70
34837;DHT22;21053;50.848;4.652;2023-02-01T12:55:43;13.90;87.90
34837;DHT22;21053;50.848;4.652;2023-02-01T12:58:41;14.30;87.30
34837;DHT22;21053;50.848;4.652;2023-02-01T13:07:01;13.50;87.10
34837;DHT22;21053;50.848;4.652;2023-02-01T13:10:21;13.20;90.10
34837;DHT22;21053;50.848;4.652;2023-02-01T13:13:00;13.00;90.20
34837;DHT22;21053;50.848;4.652;2023-02-01T13:15:48;12.90;90.10
34837;DHT22;21053;50.848;4.652;2023-02-01T13:18:18;13.10;90.30
34837;DHT22;21053;50.848;4.652;2023-02-01T13:21:09;13.20;89.90
34837;DHT22;21053;50.848;4.652;2023-02-01T13:23:45;12.90;90.30
34837;DHT22;21053;50.848;4.652;2023-02-01T13:26:18;12.60;91.50
34837;DHT22;21053;50.848;4.652;2023-02-01T13:29:25;12.40;91.10
34837;DHT22;21053;50.848;4.652;2023-02-01T13:41:12;12.00;91.40
34837;DHT22;21053;50.848;4.652;2023-02-01T13:43:40;11.90;92.20
34837;DHT22;21053;50.848;4.652;2023-02-01T13:46:11;11.80;91.90
34837;DHT22;21053;50.848;4.652;2023-02-01T13:49:01;11.80;92.40
34837;DHT22;21053;50.848;4.652;2023-02-01T13:51:42;11.70;92.30
34837;DHT22;21053;50.848;4.652;2023-02-01T13:54:34;11.70;92.70
34837;DHT22;21053;50.848;4.652;2023-02-01T13:57:05;11.60;92.50
34837;DHT22;21053;50.848;4.652;2023-02-01T14:02:46;11.50;93.30
34837;DHT22;21053;50.848;4.652;2023-02-01T14:21:34;11.10;93.80
34837;DHT22;21053;50.848;4.652;2023-02-01T14:24:23;10.90;94.20
34837;DHT22;21053;50.848;4.652;2023-02-01T14:26:54;11.00;94.10
34837;DHT22;21053;50.848;4.652;2023-02-01T14:32:17;10.90;94.70
34837;DHT22;21053;50.848;4.652;2023-02-01T14:42:49;10.70;94.80
34837;DHT22;21053;50.848;4.652;2023-02-01T14:50:34;10.70;95.30
34837;DHT22;21053;50.848;4.652;2023-02-01T14:59:23;10.70;95.10
34837;DHT22;21053;50.848;4.652;2023-02-01T15:01:34;10.60;95.40
34837;DHT22;21053;50.848;4.652;2023-02-01T15:06:46;10.60;95.60
34837;DHT22;21053;50.848;4.652;2023-02-01T15:09:43;10.60;95.60
34837;DHT22;21053;50.848;4.652;2023-02-01T15:12:17;10.70;96.10
34837;DHT22;21053;50.848;4.652;2023-02-01T15:15:09;10.70;96.00
34837;DHT22;21053;50.848;4.652;2023-02-01T15:17:39;10.50;95.90
34837;DHT22;21053;50.848;4.652;2023-02-01T15:20:22;10.50;96.00
34837;DHT22;21053;50.848;4.652;2023-02-01T15:23:06;10.50;96.10
34837;DHT22;21053;50.848;4.652;2023-02-01T15:25:46;10.50;96.20
34837;DHT22;21053;50.848;4.652;2023-02-01T15:28:17;10.50;96.70
34837;DHT22;21053;50.848;4.652;2023-02-01T15:31:12;10.40;97.10
34837;DHT22;21053;50.848;4.652;2023-02-01T15:33:56;10.60;96.70
34837;DHT22;21053;50.848;4.652;2023-02-01T15:36:25;10.50;96.80
34837;DHT22;21053;50.848;4.652;2023-02-01T15:39:20;10.60;96.50
34837;DHT22;21053;50.848;4.652;2023-02-01T15:42:16;10.60;96.60
34837;DHT22;21053;50.848;4.652;2023-02-01T15:44:46;10.50;96.70
34837;DHT22;21053;50.848;4.652;2023-02-01T15:47:18;10.70;96.60
34837;DHT22;21053;50.848;4.652;2023-02-01T15:49:50;11.10;97.40
34837;DHT22;21053;50.848;4.652;2023-02-01T15:52:36;10.40;96.80
34837;DHT22;21053;50.848;4.652;2023-02-01T15:55:07;10.30;97.00
34837;DHT22;21053;50.848;4.652;2023-02-01T15:57:40;10.30;97.30
34837;DHT22;21053;50.848;4.652;2023-02-01T16:02:54;10.10;97.80
34837;DHT22;21053;50.848;4.652;2023-02-01T16:05:36;10.10;97.90
34837;DHT22;21053;50.848;4.652;2023-02-01T16:08:14;10.10;98.00
34837;DHT22;21053;50.848;4.652;2023-02-01T16:10:48;10.10;98.00
34837;DHT22;21053;50.848;4.652;2023-02-01T16:13:21;10.20;97.80
34837;DHT22;21053;50.848;4.652;2023-02-01T16:15:48;11.20;98.50
34837;DHT22;21053;50.848;4.652;2023-02-01T16:18:17;10.10;98.30
34837;DHT22;21053;50.848;4.652;2023-02-01T16:20:46;10.00;98.40
34837;DHT22;21053;50.848;4.652;2023-02-01T16:23:15;10.10;98.20
34837;DHT22;21053;50.848;4.652;2023-02-01T16:25:44;11.10;98.90
34837;DHT22;21053;50.848;4.652;2023-02-01T16:28:12;10.00;98.70
34837;DHT22;21053;50.848;4.652;2023-02-01T16:30:44;10.00;98.30
34837;DHT22;21053;50.848;4.652;2023-02-01T16:33:16;10.70;98.70
34837;DHT22;21053;50.848;4.652;2023-02-01T16:35:45;10.10;99.30
34837;DHT22;21053;50.848;4.652;2023-02-01T16:38:16;10.20;98.40
34837;DHT22;21053;50.848;4.652;2023-02-01T16:40:45;10.10;98.70
34837;DHT22;21053;50.848;4.652;2023-02-01T16:43:20;10.00;99.50
34837;DHT22;21053;50.848;4.652;2023-02-01T16:45:49;10.00;99.90
34837;DHT22;21053;50.848;4.652;2023-02-01T16:48:25;10.00;99.40
34837;DHT22;21053;50.848;4.652;2023-02-01T16:50:57;9.90;99.90
34837;DHT22;21053;50.848;4.652;2023-02-01T16:53:29;9.70;99.90
34837;DHT22;21053;50.848;4.652;2023-02-01T16:55:57;9.70;99.60
34837;DHT22;21053;50.848;4.652;2023-02-01T16:58:26;10.60;99.90
34837;DHT22;21053;50.848;4.652;2023-02-01T17:00:53;9.80;99.60
34837;DHT22;21053;50.848;4.652;2023-02-01T17:03:22;9.80;99.90
34837;DHT22;21053;50.848;4.652;2023-02-01T17:05:56;9.80;99.90
34837;DHT22;21053;50.848;4.652;2023-02-01T17:08:41;9.90;99.40
34837;DHT22;21053;50.848;4.652;2023-02-01T17:11:27;9.90;99.40
34837;DHT22;21053;50.848;4.652;2023-02-01T17:14:20;9.90;99.90
34837;DHT22;21053;50.848;4.652;2023-02-01T17:20:29;9.80;99.90
34837;DHT22;21053;50.848;4.652;2023-02-01T17:23:04;9.70;99.90
34837;DHT22;21053;50.848;4.652;2023-02-01T17:39:39;10.10;99.90
34837;DHT22;21053;50.848;4.652;2023-02-01T17:42:23;10.10;99.90
34837;DHT22;21053;50.848;4.652;2023-02-01T17:44:56;10.00;99.90
34837;DHT22;21053;50.848;4.652;2023-02-01T17:47:23;9.90;99.90
34837;DHT22;21053;50.848;4.652;2023-02-01T17:49:52;9.80;99.90
34837;DHT22;21053;50.848;4.652;2023-02-01T17:52:23;9.80;99.90
34837;DHT22;21053;50.848;4.652;2023-02-01T17:54:57;9.70;99.90
34837;DHT22;21053;50.848;4.652;2023-02-01T17:57:27;9.70;99.90
34837;DHT22;21053;50.848;4.652;2023-02-01T18:00:17;9.70;99.90
34837;DHT22;21053;50.848;4.652;2023-02-01T18:02:49;9.60;99.90
34837;DHT22;21053;50.848;4.652;2023-02-01T18:05:17;9.60;99.90
34837;DHT22;21053;50.848;4.652;2023-02-01T18:07:44;9.70;99.90
34837;DHT22;21053;50.848;4.652;2023-02-01T18:10:10;9.70;99.90
34837;DHT22;21053;50.848;4.652;2023-02-01T18:12:38;9.60;99.90
34837;DHT22;21053;50.848;4.652;2023-02-01T18:15:21;10.20;99.90
34837;DHT22;21053;50.848;4.652;2023-02-01T18:17:53;9.50;99.90
34837;DHT22;21053;50.848;4.652;2023-02-01T18:20:22;9.60;99.90
34837;DHT22;21053;50.848;4.652;2023-02-01T18:22:49;12.00;99.90
34837;DHT22;21053;50.848;4.652;2023-02-01T18:25:51;9.60;99.90
34837;DHT22;21053;50.848;4.652;2023-02-01T18:31:36;9.70;99.90
34837;DHT22;21053;50.848;4.652;2023-02-01T18:34:09;9.70;99.90
34837;DHT22;21053;50.848;4.652;2023-02-01T18:36:45;9.70;99.90
34837;DHT22;21053;50.848;4.652;2023-02-01T18:39:10;9.70;99.90
34837;DHT22;21053;50.848;4.652;2023-02-01T18:41:37;9.60;99.90
34837;DHT22;21053;50.848;4.652;2023-02-01T18:44:12;9.60;99.90
34837;DHT22;21053;50.848;4.652;2023-02-01T18:49:24;9.80;99.90
34837;DHT22;21053;50.848;4.652;2023-02-01T18:51:53;9.80;99.90
34837;DHT22;21053;50.848;4.652;2023-02-01T18:54:22;9.70;99.90
34837;DHT22;21053;50.848;4.652;2023-02-01T18:56:52;9.70;99.90
34837;DHT22;21053;50.848;4.652;2023-02-01T18:59:20;9.70;99.90
34837;DHT22;21053;50.848;4.652;2023-02-01T19:01:49;9.70;99.90
34837;DHT22;21053;50.848;4.652;2023-02-01T19:04:18;9.70;99.90
34837;DHT22;21053;50.848;4.652;2023-02-01T19:06:47;9.60;99.90
34837;DHT22;21053;50.848;4.652;2023-02-01T19:09:17;9.60;99.90
34837;DHT22;21053;50.848;4.652;2023-02-01T19:11:45;9.60;99.90
34837;DHT22;21053;50.848;4.652;2023-02-01T19:14:12;9.60;99.90
34837;DHT22;21053;50.848;4.652;2023-02-01T19:16:44;11.40;99.90
34837;DHT22;21053;50.848;4.652;2023-02-01T19:19:13;9.60;99.90
34837;DHT22;21053;50.848;4.652;2023-02-01T19:21:39;9.70;99.90
34837;DHT22;21053;50.848;4.652;2023-02-01T19:24:06;9.80;99.90
34837;DHT22;21053;50.848;4.652;2023-02-01T19:26:35;9.90;99.90
34837;DHT22;21053;50.848;4.652;2023-02-01T19:29:03;9.80;99.90
34837;DHT22;21053;50.848;4.652;2023-02-01T19:31:31;9.60;99.90
34837;DHT22;21053;50.848;4.652;2023-02-01T19:33:58;9.60;99.90
34837;DHT22;21053;50.848;4.652;2023-02-01T19:36:25;9.70;99.90
34837;DHT22;21053;50.848;4.652;2023-02-01T19:38:51;9.60;99.90
34837;DHT22;21053;50.848;4.652;2023-02-01T19:41:17;9.70;99.90
34837;DHT22;21053;50.848;4.652;2023-02-01T19:43:46;9.70;99.90
34837;DHT22;21053;50.848;4.652;2023-02-01T19:46:13;9.70;99.90
34837;DHT22;21053;50.848;4.652;2023-02-01T19:48:42;9.80;99.90
34837;DHT22;21053;50.848;4.652;2023-02-01T19:51:16;9.70;99.90